sensor_id;sensor_type;location;lat;lon;timestamp;temperature;humidity
78522;SHT31;67819;51.972;5.678;2023-03-23T00:01:29;13.0;74.9
78522;SHT31;67819;51.972;5.678;2023-03-23T00:04:03;13.0;74.7
78522;SHT31;67819;51.972;5.678;2023-03-23T00:06:34;13.0;74.6
78522;SHT31;67819;51.972;5.678;2023-03-23T00:09:03;13.1;74.7
78522;SHT31;67819;51.972;5.678;2023-03-23T00:11:32;13.1;74.5
78522;SHT31;67819;51.972;5.678;2023-03-23T00:14:01;13.1;74.4
78522;SHT31;67819;51.972;5.678;2023-03-23T00:16:32;13.1;74.4
78522;SHT31;67819;51.972;5.678;2023-03-23T00:19:05;13.1;74.3
78522;SHT31;67819;51.972;5.678;2023-03-23T00:21:36;13.1;74.3
78522;SHT31;67819;51.972;5.678;2023-03-23T00:24:08;13.1;74.1
78522;SHT31;67819;51.972;5.678;2023-03-23T00:26:39;13.1;73.9
78522;SHT31;67819;51.972;5.678;2023-03-23T00:29:13;13.1;73.9
78522;SHT31;67819;51.972;5.678;2023-03-23T00:31:43;13.1;73.5
78522;SHT31;67819;51.972;5.678;2023-03-23T00:34:15;13.2;73.4
78522;SHT31;67819;51.972;5.678;2023-03-23T00:36:46;13.2;73.6
78522;SHT31;67819;51.972;5.678;2023-03-23T00:39:16;13.2;73.6
78522;SHT31;67819;51.972;5.678;2023-03-23T00:41:46;13.2;73.8
78522;SHT31;67819;51.972;5.678;2023-03-23T00:44:15;13.2;73.6
78522;SHT31;67819;51.972;5.678;2023-03-23T00:46:46;13.2;73.7
78522;SHT31;67819;51.972;5.678;2023-03-23T00:49:17;13.2;73.9
78522;SHT31;67819;51.972;5.678;2023-03-23T00:51:46;13.2;74.3
78522;SHT31;67819;51.972;5.678;2023-03-23T00:54:14;13.2;74.1
78522;SHT31;67819;51.972;5.678;2023-03-23T00:56:43;13.2;74.4
78522;SHT31;67819;51.972;5.678;2023-03-23T00:59:12;13.2;74.5
78522;SHT31;67819;51.972;5.678;2023-03-23T01:01:41;13.2;74.5
78522;SHT31;67819;51.972;5.678;2023-03-23T01:04:10;13.1;74.4
78522;SHT31;67819;51.972;5.678;2023-03-23T01:06:43;13.1;74.0
78522;SHT31;67819;51.972;5.678;2023-03-23T01:09:14;13.1;74.4
78522;SHT31;67819;51.972;5.678;2023-03-23T01:11:44;13.1;73.6
78522;SHT31;67819;51.972;5.678;2023-03-23T01:14:14;13.1;74.1
78522;SHT31;67819;51.972;5.678;2023-03-23T01:16:43;13.1;74.1
78522;SHT31;67819;51.972;5.678;2023-03-23T01:19:13;13.1;73.9
78522;SHT31;67819;51.972;5.678;2023-03-23T01:21:42;13.0;74.0
78522;SHT31;67819;51.972;5.678;2023-03-23T01:24:12;13.0;73.7
78522;SHT31;67819;51.972;5.678;2023-03-23T01:26:41;13.0;73.9
78522;SHT31;67819;51.972;5.678;2023-03-23T01:29:10;13.0;73.7
78522;SHT31;67819;51.972;5.678;2023-03-23T01:31:42;13.0;73.9
78522;SHT31;67819;51.972;5.678;2023-03-23T01:34:14;13.0;74.0
78522;SHT31;67819;51.972;5.678;2023-03-23T01:36:45;13.0;74.0
78522;SHT31;67819;51.972;5.678;2023-03-23T01:39:13;13.0;74.1
78522;SHT31;67819;51.972;5.678;2023-03-23T01:41:42;13.0;73.8
78522;SHT31;67819;51.972;5.678;2023-03-23T01:45:27;13.0;73.8
78522;SHT31;67819;51.972;5.678;2023-03-23T01:48:00;13.0;73.6
78522;SHT31;67819;51.972;5.678;2023-03-23T01:50:36;13.1;73.6
78522;SHT31;67819;51.972;5.678;2023-03-23T01:53:08;13.1;73.2
78522;SHT31;67819;51.972;5.678;2023-03-23T01:55:41;13.1;73.3
78522;SHT31;67819;51.972;5.678;2023-03-23T01:58:16;13.1;73.1
78522;SHT31;67819;51.972;5.678;2023-03-23T02:00:46;13.1;73.0
78522;SHT31;67819;51.972;5.678;2023-03-23T02:03:15;13.1;72.9
78522;SHT31;67819;51.972;5.678;2023-03-23T02:05:46;13.1;73.0
78522;SHT31;67819;51.972;5.678;2023-03-23T02:08:16;13.1;73.1
78522;SHT31;67819;51.972;5.678;2023-03-23T02:10:46;13.1;73.2
78522;SHT31;67819;51.972;5.678;2023-03-23T02:13:15;13.1;73.3
78522;SHT31;67819;51.972;5.678;2023-03-23T02:15:48;13.1;73.4
78522;SHT31;67819;51.972;5.678;2023-03-23T02:18:32;13.1;73.4
78522;SHT31;67819;51.972;5.678;2023-03-23T02:22:14;13.1;73.3
78522;SHT31;67819;51.972;5.678;2023-03-23T02:24:56;13.1;73.5
78522;SHT31;67819;51.972;5.678;2023-03-23T02:27:54;13.1;73.4
78522;SHT31;67819;51.972;5.678;2023-03-23T02:30:34;13.2;73.5
78522;SHT31;67819;51.972;5.678;2023-03-23T02:33:14;13.2;73.5
78522;SHT31;67819;51.972;5.678;2023-03-23T02:35:48;13.2;73.4
78522;SHT31;67819;51.972;5.678;2023-03-23T02:38:22;13.2;73.3
78522;SHT31;67819;51.972;5.678;2023-03-23T02:40:55;13.2;73.3
78522;SHT31;67819;51.972;5.678;2023-03-23T02:43:31;13.2;73.3
78522;SHT31;67819;51.972;5.678;2023-03-23T02:46:06;13.2;73.3
78522;SHT31;67819;51.972;5.678;2023-03-23T02:48:37;13.2;73.6
78522;SHT31;67819;51.972;5.678;2023-03-23T02:51:11;13.3;73.4
78522;SHT31;67819;51.972;5.678;2023-03-23T02:53:43;13.3;73.3
78522;SHT31;67819;51.972;5.678;2023-03-23T02:56:13;13.3;73.4
78522;SHT31;67819;51.972;5.678;2023-03-23T02:58:44;13.3;73.2
78522;SHT31;67819;51.972;5.678;2023-03-23T03:04:13;13.3;72.9
78522;SHT31;67819;51.972;5.678;2023-03-23T03:06:47;13.3;72.7
78522;SHT31;67819;51.972;5.678;2023-03-23T03:09:28;13.3;72.8
78522;SHT31;67819;51.972;5.678;2023-03-23T03:12:07;13.3;72.6
78522;SHT31;67819;51.972;5.678;2023-03-23T03:14:41;13.4;72.4
78522;SHT31;67819;51.972;5.678;2023-03-23T03:17:18;13.4;71.9
78522;SHT31;67819;51.972;5.678;2023-03-23T03:19:52;13.4;71.7
78522;SHT31;67819;51.972;5.678;2023-03-23T03:22:25;13.4;71.7
78522;SHT31;67819;51.972;5.678;2023-03-23T03:24:58;13.4;71.7
78522;SHT31;67819;51.972;5.678;2023-03-23T03:27:28;13.4;71.7
78522;SHT31;67819;51.972;5.678;2023-03-23T03:30:01;13.4;71.4
78522;SHT31;67819;51.972;5.678;2023-03-23T03:32:36;13.4;71.5
78522;SHT31;67819;51.972;5.678;2023-03-23T03:35:07;13.4;71.5
78522;SHT31;67819;51.972;5.678;2023-03-23T03:37:38;13.4;71.5
78522;SHT31;67819;51.972;5.678;2023-03-23T03:40:11;13.4;71.4
78522;SHT31;67819;51.972;5.678;2023-03-23T03:42:42;13.4;71.2
78522;SHT31;67819;51.972;5.678;2023-03-23T03:45:12;13.4;71.3
78522;SHT31;67819;51.972;5.678;2023-03-23T03:47:42;13.4;71.3
78522;SHT31;67819;51.972;5.678;2023-03-23T03:50:11;13.4;71.4
78522;SHT31;67819;51.972;5.678;2023-03-23T03:52:40;13.4;71.5
78522;SHT31;67819;51.972;5.678;2023-03-23T03:55:10;13.4;71.2
78522;SHT31;67819;51.972;5.678;2023-03-23T03:57:39;13.4;71.5
78522;SHT31;67819;51.972;5.678;2023-03-23T04:00:09;13.4;71.5
78522;SHT31;67819;51.972;5.678;2023-03-23T04:02:41;13.5;71.1
78522;SHT31;67819;51.972;5.678;2023-03-23T04:05:10;13.5;71.3
78522;SHT31;67819;51.972;5.678;2023-03-23T04:07:39;13.5;71.0
78522;SHT31;67819;51.972;5.678;2023-03-23T04:10:10;13.5;70.7
78522;SHT31;67819;51.972;5.678;2023-03-23T04:12:41;13.5;70.5
78522;SHT31;67819;51.972;5.678;2023-03-23T04:15:10;13.5;70.4
78522;SHT31;67819;51.972;5.678;2023-03-23T04:17:39;13.5;70.4
78522;SHT31;67819;51.972;5.678;2023-03-23T04:20:10;13.5;70.2
78522;SHT31;67819;51.972;5.678;2023-03-23T04:22:44;13.5;70.1
78522;SHT31;67819;51.972;5.678;2023-03-23T04:25:17;13.6;70.1
78522;SHT31;67819;51.972;5.678;2023-03-23T04:27:48;13.6;69.8
78522;SHT31;67819;51.972;5.678;2023-03-23T04:30:20;13.6;69.6
78522;SHT31;67819;51.972;5.678;2023-03-23T04:32:51;13.6;69.8
78522;SHT31;67819;51.972;5.678;2023-03-23T04:35:23;13.6;69.5
78522;SHT31;67819;51.972;5.678;2023-03-23T04:37:53;13.6;69.5
78522;SHT31;67819;51.972;5.678;2023-03-23T04:40:23;13.6;69.5
78522;SHT31;67819;51.972;5.678;2023-03-23T04:42:52;13.6;69.4
78522;SHT31;67819;51.972;5.678;2023-03-23T04:45:25;13.6;69.2
78522;SHT31;67819;51.972;5.678;2023-03-23T04:47:54;13.6;69.3
78522;SHT31;67819;51.972;5.678;2023-03-23T04:50:27;13.6;69.0
78522;SHT31;67819;51.972;5.678;2023-03-23T04:53:00;13.6;68.9
78522;SHT31;67819;51.972;5.678;2023-03-23T04:55:31;13.6;68.6
78522;SHT31;67819;51.972;5.678;2023-03-23T04:58:02;13.6;68.7
78522;SHT31;67819;51.972;5.678;2023-03-23T05:00:32;13.6;68.5
78522;SHT31;67819;51.972;5.678;2023-03-23T05:03:04;13.6;68.7
78522;SHT31;67819;51.972;5.678;2023-03-23T05:05:34;13.6;68.5
78522;SHT31;67819;51.972;5.678;2023-03-23T05:08:03;13.6;68.5
78522;SHT31;67819;51.972;5.678;2023-03-23T05:10:32;13.6;68.4
78522;SHT31;67819;51.972;5.678;2023-03-23T05:13:01;13.6;68.2
78522;SHT31;67819;51.972;5.678;2023-03-23T05:15:31;13.6;68.2
78522;SHT31;67819;51.972;5.678;2023-03-23T05:18:00;13.6;68.1
78522;SHT31;67819;51.972;5.678;2023-03-23T05:20:29;13.6;68.0
78522;SHT31;67819;51.972;5.678;2023-03-23T05:22:58;13.6;68.2
78522;SHT31;67819;51.972;5.678;2023-03-23T05:25:27;13.6;68.2
78522;SHT31;67819;51.972;5.678;2023-03-23T05:27:58;13.6;68.2
78522;SHT31;67819;51.972;5.678;2023-03-23T05:30:27;13.6;68.0
78522;SHT31;67819;51.972;5.678;2023-03-23T05:32:56;13.6;68.0
78522;SHT31;67819;51.972;5.678;2023-03-23T05:35:28;13.6;68.1
78522;SHT31;67819;51.972;5.678;2023-03-23T05:37:57;13.6;68.2
78522;SHT31;67819;51.972;5.678;2023-03-23T05:40:26;13.6;68.0
78522;SHT31;67819;51.972;5.678;2023-03-23T05:42:54;13.6;68.0
78522;SHT31;67819;51.972;5.678;2023-03-23T05:45:25;13.6;68.1
78522;SHT31;67819;51.972;5.678;2023-03-23T05:47:54;13.6;68.2
78522;SHT31;67819;51.972;5.678;2023-03-23T05:50:23;13.6;68.2
78522;SHT31;67819;51.972;5.678;2023-03-23T05:52:52;13.6;68.1
78522;SHT31;67819;51.972;5.678;2023-03-23T05:55:21;13.6;68.1
78522;SHT31;67819;51.972;5.678;2023-03-23T05:57:50;13.6;68.3
78522;SHT31;67819;51.972;5.678;2023-03-23T06:00:19;13.6;68.1
78522;SHT31;67819;51.972;5.678;2023-03-23T06:02:53;13.6;68.2
78522;SHT31;67819;51.972;5.678;2023-03-23T06:05:23;13.6;68.2
78522;SHT31;67819;51.972;5.678;2023-03-23T06:07:52;13.6;68.2
78522;SHT31;67819;51.972;5.678;2023-03-23T06:10:21;13.6;68.1
78522;SHT31;67819;51.972;5.678;2023-03-23T06:12:52;13.6;68.2
78522;SHT31;67819;51.972;5.678;2023-03-23T06:15:21;13.6;67.9
78522;SHT31;67819;51.972;5.678;2023-03-23T06:17:51;13.7;68.3
78522;SHT31;67819;51.972;5.678;2023-03-23T06:20:22;13.7;68.0
78522;SHT31;67819;51.972;5.678;2023-03-23T06:22:51;13.7;68.1
78522;SHT31;67819;51.972;5.678;2023-03-23T06:25:22;13.7;68.0
78522;SHT31;67819;51.972;5.678;2023-03-23T06:27:53;13.7;68.1
78522;SHT31;67819;51.972;5.678;2023-03-23T06:30:21;13.7;68.2
78522;SHT31;67819;51.972;5.678;2023-03-23T06:32:50;13.7;68.0
78522;SHT31;67819;51.972;5.678;2023-03-23T06:35:19;13.7;68.0
78522;SHT31;67819;51.972;5.678;2023-03-23T06:37:50;13.8;68.2
78522;SHT31;67819;51.972;5.678;2023-03-23T06:40:20;13.8;68.2
78522;SHT31;67819;51.972;5.678;2023-03-23T06:42:49;13.8;68.0
78522;SHT31;67819;51.972;5.678;2023-03-23T06:45:17;13.8;68.0
78522;SHT31;67819;51.972;5.678;2023-03-23T06:47:47;13.8;67.9
78522;SHT31;67819;51.972;5.678;2023-03-23T06:50:16;13.8;67.8
78522;SHT31;67819;51.972;5.678;2023-03-23T06:52:47;13.8;67.8
78522;SHT31;67819;51.972;5.678;2023-03-23T06:55:17;13.8;68.0
78522;SHT31;67819;51.972;5.678;2023-03-23T06:57:47;13.8;68.1
78522;SHT31;67819;51.972;5.678;2023-03-23T07:00:16;13.8;67.9
78522;SHT31;67819;51.972;5.678;2023-03-23T07:02:45;13.8;68.3
78522;SHT31;67819;51.972;5.678;2023-03-23T07:05:13;13.8;68.2
78522;SHT31;67819;51.972;5.678;2023-03-23T07:07:44;13.8;68.2
78522;SHT31;67819;51.972;5.678;2023-03-23T07:10:15;13.8;67.8
78522;SHT31;67819;51.972;5.678;2023-03-23T07:12:44;13.8;68.1
78522;SHT31;67819;51.972;5.678;2023-03-23T07:15:15;13.8;68.0
78522;SHT31;67819;51.972;5.678;2023-03-23T07:17:44;13.8;68.1
78522;SHT31;67819;51.972;5.678;2023-03-23T07:20:14;13.8;67.9
78522;SHT31;67819;51.972;5.678;2023-03-23T07:22:42;13.9;68.0
78522;SHT31;67819;51.972;5.678;2023-03-23T07:25:12;13.9;67.9
78522;SHT31;67819;51.972;5.678;2023-03-23T07:27:43;13.9;67.8
78522;SHT31;67819;51.972;5.678;2023-03-23T07:30:13;13.9;67.8
78522;SHT31;67819;51.972;5.678;2023-03-23T07:32:42;13.9;68.1
78522;SHT31;67819;51.972;5.678;2023-03-23T07:35:11;13.9;68.2
78522;SHT31;67819;51.972;5.678;2023-03-23T07:37:40;13.9;68.1
78522;SHT31;67819;51.972;5.678;2023-03-23T07:40:09;13.9;68.1
78522;SHT31;67819;51.972;5.678;2023-03-23T07:42:41;13.9;67.7
78522;SHT31;67819;51.972;5.678;2023-03-23T07:45:13;13.9;67.3
78522;SHT31;67819;51.972;5.678;2023-03-23T07:47:41;13.9;67.4
78522;SHT31;67819;51.972;5.678;2023-03-23T07:50:11;13.9;67.9
78522;SHT31;67819;51.972;5.678;2023-03-23T07:52:40;13.9;68.0
78522;SHT31;67819;51.972;5.678;2023-03-23T07:55:12;13.8;68.9
78522;SHT31;67819;51.972;5.678;2023-03-23T07:57:44;13.8;69.0
78522;SHT31;67819;51.972;5.678;2023-03-23T08:00:15;13.8;69.7
78522;SHT31;67819;51.972;5.678;2023-03-23T08:02:46;13.7;70.2
78522;SHT31;67819;51.972;5.678;2023-03-23T08:05:16;13.7;69.8
78522;SHT31;67819;51.972;5.678;2023-03-23T08:07:45;13.6;70.8
78522;SHT31;67819;51.972;5.678;2023-03-23T08:10:15;13.6;71.3
78522;SHT31;67819;51.972;5.678;2023-03-23T08:12:44;13.5;72.1
78522;SHT31;67819;51.972;5.678;2023-03-23T08:15:14;13.5;72.4
78522;SHT31;67819;51.972;5.678;2023-03-23T08:17:44;13.4;73.3
78522;SHT31;67819;51.972;5.678;2023-03-23T08:20:14;13.4;73.5
78522;SHT31;67819;51.972;5.678;2023-03-23T08:22:45;13.3;73.3
78522;SHT31;67819;51.972;5.678;2023-03-23T08:25:14;13.3;74.0
78522;SHT31;67819;51.972;5.678;2023-03-23T08:27:44;13.3;73.9
78522;SHT31;67819;51.972;5.678;2023-03-23T08:30:15;13.3;74.0
78522;SHT31;67819;51.972;5.678;2023-03-23T08:32:45;13.3;73.7
78522;SHT31;67819;51.972;5.678;2023-03-23T08:35:16;13.3;73.5
78522;SHT31;67819;51.972;5.678;2023-03-23T08:37:46;13.3;73.6
78522;SHT31;67819;51.972;5.678;2023-03-23T08:40:19;13.3;73.2
78522;SHT31;67819;51.972;5.678;2023-03-23T08:42:50;13.4;72.6
78522;SHT31;67819;51.972;5.678;2023-03-23T08:45:22;13.4;72.3
78522;SHT31;67819;51.972;5.678;2023-03-23T08:47:51;13.4;71.8
78522;SHT31;67819;51.972;5.678;2023-03-23T08:50:24;13.4;71.2
78522;SHT31;67819;51.972;5.678;2023-03-23T08:52:54;13.4;70.6
78522;SHT31;67819;51.972;5.678;2023-03-23T08:55:23;13.4;70.9
78522;SHT31;67819;51.972;5.678;2023-03-23T08:57:52;13.5;70.8
78522;SHT31;67819;51.972;5.678;2023-03-23T09:00:22;13.5;70.3
78522;SHT31;67819;51.972;5.678;2023-03-23T09:02:53;13.6;70.0
78522;SHT31;67819;51.972;5.678;2023-03-23T09:05:26;13.6;70.1
78522;SHT31;67819;51.972;5.678;2023-03-23T09:07:57;13.6;69.6
78522;SHT31;67819;51.972;5.678;2023-03-23T09:10:28;13.7;69.2
78522;SHT31;67819;51.972;5.678;2023-03-23T09:12:57;13.7;68.4
78522;SHT31;67819;51.972;5.678;2023-03-23T09:15:26;13.7;68.0
78522;SHT31;67819;51.972;5.678;2023-03-23T09:17:54;13.7;68.0
78522;SHT31;67819;51.972;5.678;2023-03-23T09:20:25;13.7;67.1
78522;SHT31;67819;51.972;5.678;2023-03-23T09:22:56;13.7;67.3
78522;SHT31;67819;51.972;5.678;2023-03-23T09:25:27;13.7;67.1
78522;SHT31;67819;51.972;5.678;2023-03-23T09:27:58;13.7;67.4
78522;SHT31;67819;51.972;5.678;2023-03-23T09:30:29;13.7;67.7
78522;SHT31;67819;51.972;5.678;2023-03-23T09:33:00;13.7;67.2
78522;SHT31;67819;51.972;5.678;2023-03-23T09:35:33;13.8;67.4
78522;SHT31;67819;51.972;5.678;2023-03-23T09:38:05;13.8;66.2
78522;SHT31;67819;51.972;5.678;2023-03-23T09:40:38;13.8;66.4
78522;SHT31;67819;51.972;5.678;2023-03-23T09:43:24;13.8;66.7
78522;SHT31;67819;51.972;5.678;2023-03-23T09:46:08;13.8;66.7
78522;SHT31;67819;51.972;5.678;2023-03-23T09:48:48;13.9;66.3
78522;SHT31;67819;51.972;5.678;2023-03-23T09:51:32;13.9;65.9
78522;SHT31;67819;51.972;5.678;2023-03-23T09:54:08;13.9;65.6
78522;SHT31;67819;51.972;5.678;2023-03-23T09:56:39;14.0;65.1
78522;SHT31;67819;51.972;5.678;2023-03-23T09:59:16;14.0;64.7
78522;SHT31;67819;51.972;5.678;2023-03-23T10:01:48;14.0;65.2
78522;SHT31;67819;51.972;5.678;2023-03-23T10:04:26;14.0;64.4
78522;SHT31;67819;51.972;5.678;2023-03-23T10:07:00;14.1;64.0
78522;SHT31;67819;51.972;5.678;2023-03-23T10:09:35;14.1;64.0
78522;SHT31;67819;51.972;5.678;2023-03-23T10:12:10;14.2;63.5
78522;SHT31;67819;51.972;5.678;2023-03-23T10:15:04;14.2;62.7
78522;SHT31;67819;51.972;5.678;2023-03-23T10:17:44;14.3;63.3
78522;SHT31;67819;51.972;5.678;2023-03-23T10:20:35;14.3;63.8
78522;SHT31;67819;51.972;5.678;2023-03-23T10:23:23;14.4;62.4
78522;SHT31;67819;51.972;5.678;2023-03-23T10:25:50;14.4;62.3
78522;SHT31;67819;51.972;5.678;2023-03-23T10:28:32;14.5;62.3
78522;SHT31;67819;51.972;5.678;2023-03-23T10:30:56;14.6;62.5
78522;SHT31;67819;51.972;5.678;2023-03-23T10:33:35;14.8;62.4
78522;SHT31;67819;51.972;5.678;2023-03-23T10:36:08;14.9;61.5
78522;SHT31;67819;51.972;5.678;2023-03-23T10:38:43;15.0;61.2
78522;SHT31;67819;51.972;5.678;2023-03-23T10:41:14;15.1;60.9
78522;SHT31;67819;51.972;5.678;2023-03-23T10:43:45;15.2;59.6
78522;SHT31;67819;51.972;5.678;2023-03-23T10:46:25;15.3;58.6
78522;SHT31;67819;51.972;5.678;2023-03-23T10:48:57;15.4;57.9
78522;SHT31;67819;51.972;5.678;2023-03-23T10:51:32;15.4;56.9
78522;SHT31;67819;51.972;5.678;2023-03-23T10:54:04;15.3;56.5
78522;SHT31;67819;51.972;5.678;2023-03-23T10:56:38;15.3;55.9
78522;SHT31;67819;51.972;5.678;2023-03-23T10:59:18;15.3;56.0
78522;SHT31;67819;51.972;5.678;2023-03-23T11:01:52;15.3;56.3
78522;SHT31;67819;51.972;5.678;2023-03-23T11:04:22;15.3;56.0
78522;SHT31;67819;51.972;5.678;2023-03-23T11:06:58;15.4;56.0
78522;SHT31;67819;51.972;5.678;2023-03-23T11:09:37;15.4;56.7
78522;SHT31;67819;51.972;5.678;2023-03-23T11:12:18;15.5;56.9
78522;SHT31;67819;51.972;5.678;2023-03-23T11:14:47;15.7;57.2
78522;SHT31;67819;51.972;5.678;2023-03-23T11:17:23;15.8;55.7
78522;SHT31;67819;51.972;5.678;2023-03-23T11:19:53;15.9;56.1
78522;SHT31;67819;51.972;5.678;2023-03-23T11:22:26;16.0;56.8
78522;SHT31;67819;51.972;5.678;2023-03-23T11:25:00;16.1;55.9
78522;SHT31;67819;51.972;5.678;2023-03-23T11:27:32;16.1;55.7
78522;SHT31;67819;51.972;5.678;2023-03-23T11:30:10;16.1;55.7
78522;SHT31;67819;51.972;5.678;2023-03-23T11:32:44;16.1;54.5
78522;SHT31;67819;51.972;5.678;2023-03-23T11:35:18;16.1;54.7
78522;SHT31;67819;51.972;5.678;2023-03-23T11:37:50;16.1;54.4
78522;SHT31;67819;51.972;5.678;2023-03-23T11:40:22;16.0;54.3
78522;SHT31;67819;51.972;5.678;2023-03-23T11:42:57;16.0;54.6
78522;SHT31;67819;51.972;5.678;2023-03-23T11:45:32;15.9;55.4
78522;SHT31;67819;51.972;5.678;2023-03-23T11:48:09;15.9;55.9
78522;SHT31;67819;51.972;5.678;2023-03-23T11:50:52;16.0;55.5
78522;SHT31;67819;51.972;5.678;2023-03-23T11:53:30;16.0;54.7
78522;SHT31;67819;51.972;5.678;2023-03-23T11:56:08;16.0;53.7
78522;SHT31;67819;51.972;5.678;2023-03-23T11:58:38;16.0;53.8
78522;SHT31;67819;51.972;5.678;2023-03-23T12:01:15;16.1;54.4
78522;SHT31;67819;51.972;5.678;2023-03-23T12:04:00;16.1;53.2
78522;SHT31;67819;51.972;5.678;2023-03-23T12:06:39;16.2;52.6
78522;SHT31;67819;51.972;5.678;2023-03-23T12:09:23;16.2;53.1
78522;SHT31;67819;51.972;5.678;2023-03-23T12:11:57;16.3;52.6
78522;SHT31;67819;51.972;5.678;2023-03-23T12:14:37;16.4;52.8
78522;SHT31;67819;51.972;5.678;2023-03-23T12:17:20;16.4;52.4
78522;SHT31;67819;51.972;5.678;2023-03-23T12:19:58;16.4;53.2
78522;SHT31;67819;51.972;5.678;2023-03-23T12:22:50;16.4;54.7
78522;SHT31;67819;51.972;5.678;2023-03-23T12:25:50;16.3;56.1
78522;SHT31;67819;51.972;5.678;2023-03-23T12:28:32;16.0;58.4
78522;SHT31;67819;51.972;5.678;2023-03-23T12:31:14;15.7;60.7
78522;SHT31;67819;51.972;5.678;2023-03-23T12:33:56;15.4;61.0
78522;SHT31;67819;51.972;5.678;2023-03-23T12:36:45;15.0;63.2
78522;SHT31;67819;51.972;5.678;2023-03-23T12:40:48;14.7;66.4
78522;SHT31;67819;51.972;5.678;2023-03-23T12:43:29;14.1;70.1
78522;SHT31;67819;51.972;5.678;2023-03-23T12:47:32;13.7;72.4
78522;SHT31;67819;51.972;5.678;2023-03-23T12:50:09;13.3;74.6
78522;SHT31;67819;51.972;5.678;2023-03-23T12:52:47;13.2;77.1
78522;SHT31;67819;51.972;5.678;2023-03-23T12:55:25;13.1;76.9
78522;SHT31;67819;51.972;5.678;2023-03-23T12:58:01;13.1;78.1
78522;SHT31;67819;51.972;5.678;2023-03-23T13:00:48;13.1;78.8
78522;SHT31;67819;51.972;5.678;2023-03-23T13:03:20;13.1;79.5
78522;SHT31;67819;51.972;5.678;2023-03-23T13:05:53;13.2;76.9
78522;SHT31;67819;51.972;5.678;2023-03-23T13:08:27;13.3;75.6
78522;SHT31;67819;51.972;5.678;2023-03-23T13:11:03;13.3;73.2
78522;SHT31;67819;51.972;5.678;2023-03-23T13:13:47;13.3;72.9
78522;SHT31;67819;51.972;5.678;2023-03-23T13:16:27;13.4;72.5
78522;SHT31;67819;51.972;5.678;2023-03-23T13:19:06;13.4;73.9
78522;SHT31;67819;51.972;5.678;2023-03-23T13:21:44;13.5;72.8
78522;SHT31;67819;51.972;5.678;2023-03-23T13:24:21;13.6;71.8
78522;SHT31;67819;51.972;5.678;2023-03-23T13:26:53;13.8;73.8
78522;SHT31;67819;51.972;5.678;2023-03-23T13:29:25;14.0;71.4
78522;SHT31;67819;51.972;5.678;2023-03-23T13:32:10;14.2;69.4
78522;SHT31;67819;51.972;5.678;2023-03-23T13:34:41;14.4;69.5
78522;SHT31;67819;51.972;5.678;2023-03-23T13:37:23;14.6;67.1
78522;SHT31;67819;51.972;5.678;2023-03-23T13:39:55;14.7;66.2
78522;SHT31;67819;51.972;5.678;2023-03-23T13:42:27;14.7;65.6
78522;SHT31;67819;51.972;5.678;2023-03-23T13:45:17;14.7;65.2
78522;SHT31;67819;51.972;5.678;2023-03-23T13:47:42;14.7;66.7
78522;SHT31;67819;51.972;5.678;2023-03-23T13:50:28;14.7;65.3
78522;SHT31;67819;51.972;5.678;2023-03-23T13:53:00;14.7;65.8
78522;SHT31;67819;51.972;5.678;2023-03-23T13:55:41;14.8;66.0
78522;SHT31;67819;51.972;5.678;2023-03-23T13:58:25;14.8;66.5
78522;SHT31;67819;51.972;5.678;2023-03-23T14:01:14;14.8;66.8
78522;SHT31;67819;51.972;5.678;2023-03-23T14:03:47;14.8;65.8
78522;SHT31;67819;51.972;5.678;2023-03-23T14:06:20;14.8;67.1
78522;SHT31;67819;51.972;5.678;2023-03-23T14:08:54;14.8;66.1
78522;SHT31;67819;51.972;5.678;2023-03-23T14:11:28;14.8;67.2
78522;SHT31;67819;51.972;5.678;2023-03-23T14:14:04;14.8;68.0
78522;SHT31;67819;51.972;5.678;2023-03-23T14:16:37;14.8;68.8
78522;SHT31;67819;51.972;5.678;2023-03-23T14:19:14;14.8;67.9
78522;SHT31;67819;51.972;5.678;2023-03-23T14:21:49;14.8;67.5
78522;SHT31;67819;51.972;5.678;2023-03-23T14:24:20;14.8;68.7
78522;SHT31;67819;51.972;5.678;2023-03-23T14:26:52;14.9;67.7
78522;SHT31;67819;51.972;5.678;2023-03-23T14:29:23;14.9;66.5
78522;SHT31;67819;51.972;5.678;2023-03-23T14:31:55;15.0;65.4
78522;SHT31;67819;51.972;5.678;2023-03-23T14:34:28;15.0;65.2
78522;SHT31;67819;51.972;5.678;2023-03-23T14:36:59;15.1;64.7
78522;SHT31;67819;51.972;5.678;2023-03-23T14:39:30;15.3;65.3
78522;SHT31;67819;51.972;5.678;2023-03-23T14:42:05;15.5;64.8
78522;SHT31;67819;51.972;5.678;2023-03-23T14:44:40;15.9;62.8
78522;SHT31;67819;51.972;5.678;2023-03-23T14:47:18;16.3;61.4
78522;SHT31;67819;51.972;5.678;2023-03-23T14:49:53;16.7;59.2
78522;SHT31;67819;51.972;5.678;2023-03-23T14:52:25;17.0;58.4
78522;SHT31;67819;51.972;5.678;2023-03-23T14:54:55;17.2;57.4
78522;SHT31;67819;51.972;5.678;2023-03-23T14:57:29;17.3;56.7
78522;SHT31;67819;51.972;5.678;2023-03-23T14:59:59;17.3;55.5
78522;SHT31;67819;51.972;5.678;2023-03-23T15:02:31;17.4;55.1
78522;SHT31;67819;51.972;5.678;2023-03-23T15:05:09;17.5;54.3
78522;SHT31;67819;51.972;5.678;2023-03-23T15:07:42;17.5;54.4
78522;SHT31;67819;51.972;5.678;2023-03-23T15:10:16;17.6;53.9
78522;SHT31;67819;51.972;5.678;2023-03-23T15:12:47;17.6;53.1
78522;SHT31;67819;51.972;5.678;2023-03-23T15:15:21;17.6;52.7
78522;SHT31;67819;51.972;5.678;2023-03-23T15:17:51;17.7;53.3
78522;SHT31;67819;51.972;5.678;2023-03-23T15:20:24;17.7;53.0
78522;SHT31;67819;51.972;5.678;2023-03-23T15:22:54;17.8;52.8
78522;SHT31;67819;51.972;5.678;2023-03-23T15:25:30;17.8;52.2
78522;SHT31;67819;51.972;5.678;2023-03-23T15:28:14;17.8;52.4
78522;SHT31;67819;51.972;5.678;2023-03-23T15:30:50;17.8;51.8
78522;SHT31;67819;51.972;5.678;2023-03-23T15:33:21;17.8;52.0
78522;SHT31;67819;51.972;5.678;2023-03-23T15:35:55;17.8;51.6
78522;SHT31;67819;51.972;5.678;2023-03-23T15:38:28;17.8;52.0
78522;SHT31;67819;51.972;5.678;2023-03-23T15:41:01;17.7;51.4
78522;SHT31;67819;51.972;5.678;2023-03-23T15:43:32;17.7;52.5
78522;SHT31;67819;51.972;5.678;2023-03-23T15:46:03;17.6;53.3
78522;SHT31;67819;51.972;5.678;2023-03-23T15:48:44;17.5;52.8
78522;SHT31;67819;51.972;5.678;2023-03-23T15:51:09;17.5;54.1
78522;SHT31;67819;51.972;5.678;2023-03-23T15:53:41;17.5;54.4
78522;SHT31;67819;51.972;5.678;2023-03-23T15:56:12;17.5;54.5
78522;SHT31;67819;51.972;5.678;2023-03-23T15:58:42;17.4;54.3
78522;SHT31;67819;51.972;5.678;2023-03-23T16:01:15;17.4;54.8
78522;SHT31;67819;51.972;5.678;2023-03-23T16:03:47;17.4;55.3
78522;SHT31;67819;51.972;5.678;2023-03-23T16:06:19;17.4;55.0
78522;SHT31;67819;51.972;5.678;2023-03-23T16:08:48;17.3;55.5
78522;SHT31;67819;51.972;5.678;2023-03-23T16:11:17;17.3;54.8
78522;SHT31;67819;51.972;5.678;2023-03-23T16:13:46;17.3;54.9
78522;SHT31;67819;51.972;5.678;2023-03-23T16:16:18;17.3;55.6
78522;SHT31;67819;51.972;5.678;2023-03-23T16:18:48;17.2;54.9
78522;SHT31;67819;51.972;5.678;2023-03-23T16:21:17;17.2;54.6
78522;SHT31;67819;51.972;5.678;2023-03-23T16:23:45;17.1;54.1
78522;SHT31;67819;51.972;5.678;2023-03-23T16:26:14;17.0;54.3
78522;SHT31;67819;51.972;5.678;2023-03-23T16:28:43;17.0;54.9
78522;SHT31;67819;51.972;5.678;2023-03-23T16:31:12;16.9;55.1
78522;SHT31;67819;51.972;5.678;2023-03-23T16:33:43;16.8;55.1
78522;SHT31;67819;51.972;5.678;2023-03-23T16:36:13;16.7;55.6
78522;SHT31;67819;51.972;5.678;2023-03-23T16:38:41;16.6;55.7
78522;SHT31;67819;51.972;5.678;2023-03-23T16:41:10;16.5;56.3
78522;SHT31;67819;51.972;5.678;2023-03-23T16:43:39;16.5;56.4
78522;SHT31;67819;51.972;5.678;2023-03-23T16:46:10;16.4;56.6